sensor_id;sensor_type;location;lat;lon;timestamp;pressure;altitude;pressure_sealevel;temperature;humidity
4022;BME280;2025;48.260;16.432;2022-12-11T00:00:03;98592.31;;;2.67;100.00
4022;BME280;2025;48.260;16.432;2022-12-11T00:02:31;98580.13;;;2.62;100.00
4022;BME280;2025;48.260;16.432;2022-12-11T00:04:57;98585.25;;;2.60;100.00
4022;BME280;2025;48.260;16.432;2022-12-11T00:07:24;98580.91;;;2.57;100.00
4022;BME280;2025;48.260;16.432;2022-12-11T00:09:52;98588.72;;;2.61;100.00
4022;BME280;2025;48.260;16.432;2022-12-11T00:12:21;98580.97;;;2.61;100.00
4022;BME280;2025;48.260;16.432;2022-12-11T00:14:48;98574.06;;;2.61;100.00
4022;BME280;2025;48.260;16.432;2022-12-11T00:17:15;98582.78;;;2.65;100.00
4022;BME280;2025;48.260;16.432;2022-12-11T00:19:42;98586.19;;;2.64;100.00
4022;BME280;2025;48.260;16.432;2022-12-11T00:22:09;98586.09;;;2.59;100.00
4022;BME280;2025;48.260;16.432;2022-12-11T00:24:37;98571.69;;;2.70;100.00
4022;BME280;2025;48.260;16.432;2022-12-11T00:27:04;98573.47;;;2.73;100.00
4022;BME280;2025;48.260;16.432;2022-12-11T00:29:32;98579.41;;;2.69;100.00
4022;BME280;2025;48.260;16.432;2022-12-11T00:31:59;98572.44;;;2.65;100.00
4022;BME280;2025;48.260;16.432;2022-12-11T00:34:26;98563.81;;;2.64;100.00
4022;BME280;2025;48.260;16.432;2022-12-11T00:36:53;98566.28;;;2.60;100.00
4022;BME280;2025;48.260;16.432;2022-12-11T00:39:20;98569.84;;;2.65;100.00
4022;BME280;2025;48.260;16.432;2022-12-11T00:41:47;98569.06;;;2.69;100.00
4022;BME280;2025;48.260;16.432;2022-12-11T00:44:15;98567.19;;;2.62;100.00
4022;BME280;2025;48.260;16.432;2022-12-11T00:46:43;98573.38;;;2.68;100.00
4022;BME280;2025;48.260;16.432;2022-12-11T00:49:10;98572.44;;;2.65;100.00
4022;BME280;2025;48.260;16.432;2022-12-11T00:51:38;98574.19;;;2.66;100.00
4022;BME280;2025;48.260;16.432;2022-12-11T00:54:04;98579.50;;;2.73;100.00
4022;BME280;2025;48.260;16.432;2022-12-11T00:56:33;98597.56;;;2.70;100.00
4022;BME280;2025;48.260;16.432;2022-12-11T00:59:00;98590.41;;;2.58;100.00
4022;BME280;2025;48.260;16.432;2022-12-11T01:01:27;98589.44;;;2.53;100.00
4022;BME280;2025;48.260;16.432;2022-12-11T01:03:55;98597.88;;;2.45;100.00
4022;BME280;2025;48.260;16.432;2022-12-11T01:06:24;98588.22;;;2.38;100.00
4022;BME280;2025;48.260;16.432;2022-12-11T01:08:52;98603.53;;;2.29;100.00
4022;BME280;2025;48.260;16.432;2022-12-11T01:11:41;98596.84;;;2.38;100.00
4022;BME280;2025;48.260;16.432;2022-12-11T01:14:08;98596.75;;;2.34;100.00
4022;BME280;2025;48.260;16.432;2022-12-11T01:16:35;98595.06;;;2.36;100.00
4022;BME280;2025;48.260;16.432;2022-12-11T01:19:04;98604.53;;;2.35;100.00
4022;BME280;2025;48.260;16.432;2022-12-11T01:21:31;98607.25;;;2.41;100.00
4022;BME280;2025;48.260;16.432;2022-12-11T01:23:58;98612.41;;;2.40;100.00
4022;BME280;2025;48.260;16.432;2022-12-11T01:26:25;98613.91;;;2.30;100.00
4022;BME280;2025;48.260;16.432;2022-12-11T01:28:52;98606.78;;;2.20;100.00
4022;BME280;2025;48.260;16.432;2022-12-11T01:31:19;98605.00;;;2.17;100.00
4022;BME280;2025;48.260;16.432;2022-12-11T01:33:46;98599.84;;;2.19;100.00
4022;BME280;2025;48.260;16.432;2022-12-11T01:36:17;98591.03;;;2.09;100.00
4022;BME280;2025;48.260;16.432;2022-12-11T01:38:45;98589.19;;;2.05;100.00
4022;BME280;2025;48.260;16.432;2022-12-11T01:41:13;98603.06;;;2.09;100.00
4022;BME280;2025;48.260;16.432;2022-12-11T01:44:04;98617.69;;;2.08;100.00
4022;BME280;2025;48.260;16.432;2022-12-11T01:46:33;98610.78;;;2.07;100.00
4022;BME280;2025;48.260;16.432;2022-12-11T01:49:02;98609.06;;;2.08;100.00
4022;BME280;2025;48.260;16.432;2022-12-11T01:51:34;98616.06;;;2.12;100.00
4022;BME280;2025;48.260;16.432;2022-12-11T01:54:05;98621.41;;;2.19;100.00
4022;BME280;2025;48.260;16.432;2022-12-11T01:56:34;98621.44;;;2.21;100.00
4022;BME280;2025;48.260;16.432;2022-12-11T01:59:07;98622.34;;;2.23;100.00
4022;BME280;2025;48.260;16.432;2022-12-11T02:01:39;98624.16;;;2.27;100.00
4022;BME280;2025;48.260;16.432;2022-12-11T02:04:08;98627.53;;;2.23;100.00
4022;BME280;2025;48.260;16.432;2022-12-11T02:06:39;98624.13;;;2.25;100.00
4022;BME280;2025;48.260;16.432;2022-12-11T02:09:11;98633.56;;;2.23;100.00
4022;BME280;2025;48.260;16.432;2022-12-11T02:11:49;98634.72;;;2.36;100.00
4022;BME280;2025;48.260;16.432;2022-12-11T02:14:25;98637.03;;;2.24;100.00
4022;BME280;2025;48.260;16.432;2022-12-11T02:16:55;98635.38;;;2.28;100.00
4022;BME280;2025;48.260;16.432;2022-12-11T02:19:43;98629.34;;;2.27;100.00
4022;BME280;2025;48.260;16.432;2022-12-11T02:22:12;98626.72;;;2.25;100.00
4022;BME280;2025;48.260;16.432;2022-12-11T02:24:53;98625.84;;;2.25;100.00
4022;BME280;2025;48.260;16.432;2022-12-11T02:27:29;98625.84;;;2.25;100.00
4022;BME280;2025;48.260;16.432;2022-12-11T02:30:02;98615.28;;;2.16;100.00
4022;BME280;2025;48.260;16.432;2022-12-11T02:32:34;98631.88;;;2.25;100.00
4022;BME280;2025;48.260;16.432;2022-12-11T02:35:09;98636.88;;;2.18;100.00
4022;BME280;2025;48.260;16.432;2022-12-11T02:37:41;98629.88;;;2.14;100.00
4022;BME280;2025;48.260;16.432;2022-12-11T02:40:11;98635.88;;;2.13;100.00
4022;BME280;2025;48.260;16.432;2022-12-11T02:42:41;98633.22;;;2.10;100.00
4022;BME280;2025;48.260;16.432;2022-12-11T02:45:11;98632.47;;;2.14;100.00
4022;BME280;2025;48.260;16.432;2022-12-11T02:47:40;98619.63;;;2.17;100.00
4022;BME280;2025;48.260;16.432;2022-12-11T02:50:11;98630.06;;;2.21;100.00
4022;BME280;2025;48.260;16.432;2022-12-11T02:52:40;98621.44;;;2.21;100.00
4022;BME280;2025;48.260;16.432;2022-12-11T02:55:09;98627.31;;;2.14;100.00
4022;BME280;2025;48.260;16.432;2022-12-11T02:57:44;98636.66;;;2.09;100.00
4022;BME280;2025;48.260;16.432;2022-12-11T03:00:15;98614.94;;;2.01;100.00
4022;BME280;2025;48.260;16.432;2022-12-11T03:02:43;98621.13;;;2.07;100.00
4022;BME280;2025;48.260;16.432;2022-12-11T03:05:11;98622.81;;;2.07;100.00
4022;BME280;2025;48.260;16.432;2022-12-11T03:07:41;98609.88;;;2.05;100.00
4022;BME280;2025;48.260;16.432;2022-12-11T03:10:12;98621.94;;;2.06;100.00
4022;BME280;2025;48.260;16.432;2022-12-11T03:12:42;98615.91;;;2.06;100.00
4022;BME280;2025;48.260;16.432;2022-12-11T03:15:12;98628.09;;;2.11;100.00
4022;BME280;2025;48.260;16.432;2022-12-11T03:17:47;98622.72;;;2.02;100.00
4022;BME280;2025;48.260;16.432;2022-12-11T03:20:25;98619.91;;;1.93;100.00
4022;BME280;2025;48.260;16.432;2022-12-11T03:23:03;98623.59;;;2.03;100.00
4022;BME280;2025;48.260;16.432;2022-12-11T03:25:39;98618.56;;;2.09;100.00
4022;BME280;2025;48.260;16.432;2022-12-11T03:28:13;98615.72;;;1.98;100.00
4022;BME280;2025;48.260;16.432;2022-12-11T03:30:44;98618.84;;;1.85;100.00
4022;BME280;2025;48.260;16.432;2022-12-11T03:33:16;98607.75;;;1.89;100.00
4022;BME280;2025;48.260;16.432;2022-12-11T03:35:50;98626.63;;;1.86;100.00
4022;BME280;2025;48.260;16.432;2022-12-11T03:38:19;98616.44;;;1.92;100.00
4022;BME280;2025;48.260;16.432;2022-12-11T03:40:50;98605.22;;;1.90;100.00
4022;BME280;2025;48.260;16.432;2022-12-11T03:43:20;98605.97;;;1.86;100.00
4022;BME280;2025;48.260;16.432;2022-12-11T03:45:49;98615.44;;;1.86;100.00
4022;BME280;2025;48.260;16.432;2022-12-11T03:48:19;98608.47;;;1.83;100.00
4022;BME280;2025;48.260;16.432;2022-12-11T03:50:47;98609.63;;;1.95;100.00
4022;BME280;2025;48.260;16.432;2022-12-11T03:53:17;98624.44;;;2.02;100.00
4022;BME280;2025;48.260;16.432;2022-12-11T03:55:47;98613.84;;;1.91;100.00
4022;BME280;2025;48.260;16.432;2022-12-11T03:58:15;98621.41;;;1.83;100.00
4022;BME280;2025;48.260;16.432;2022-12-11T04:00:42;98622.22;;;1.82;100.00
4022;BME280;2025;48.260;16.432;2022-12-11T04:03:10;98625.72;;;1.84;100.00
4022;BME280;2025;48.260;16.432;2022-12-11T04:05:43;98628.34;;;1.86;100.00
4022;BME280;2025;48.260;16.432;2022-12-11T04:08:11;98625.66;;;1.81;100.00
4022;BME280;2025;48.260;16.432;2022-12-11T04:10:39;98631.00;;;1.89;100.00
4022;BME280;2025;48.260;16.432;2022-12-11T04:13:09;98625.06;;;1.93;100.00
4022;BME280;2025;48.260;16.432;2022-12-11T04:15:37;98628.31;;;1.84;100.00
4022;BME280;2025;48.260;16.432;2022-12-11T04:18:04;98628.59;;;1.97;100.00
4022;BME280;2025;48.260;16.432;2022-12-11T04:20:52;98618.06;;;1.87;100.00
4022;BME280;2025;48.260;16.432;2022-12-11T04:23:36;98626.31;;;1.74;100.00
4022;BME280;2025;48.260;16.432;2022-12-11T04:26:21;98634.56;;;1.61;100.00
4022;BME280;2025;48.260;16.432;2022-12-11T04:28:48;98619.25;;;1.69;100.00
4022;BME280;2025;48.260;16.432;2022-12-11T04:31:17;98633.06;;;1.69;100.00
4022;BME280;2025;48.260;16.432;2022-12-11T04:33:45;98626.63;;;1.53;100.00
4022;BME280;2025;48.260;16.432;2022-12-11T04:36:13;98629.00;;;1.46;100.00
4022;BME280;2025;48.260;16.432;2022-12-11T04:38:40;98625.75;;;1.53;100.00
4022;BME280;2025;48.260;16.432;2022-12-11T04:41:09;98645.19;;;1.40;100.00
4022;BME280;2025;48.260;16.432;2022-12-11T04:43:36;98640.75;;;1.35;100.00
4022;BME280;2025;48.260;16.432;2022-12-11T04:46:05;98638.88;;;1.29;100.00
4022;BME280;2025;48.260;16.432;2022-12-11T04:48:33;98632.72;;;1.24;100.00
4022;BME280;2025;48.260;16.432;2022-12-11T04:51:00;98622.13;;;1.15;100.00
4022;BME280;2025;48.260;16.432;2022-12-11T04:53:28;98622.63;;;1.02;100.00
4022;BME280;2025;48.260;16.432;2022-12-11T04:55:55;98621.72;;;1.00;100.00
4022;BME280;2025;48.260;16.432;2022-12-11T04:58:22;98627.13;;;1.09;100.00
4022;BME280;2025;48.260;16.432;2022-12-11T05:00:50;98619.34;;;1.07;100.00
4022;BME280;2025;48.260;16.432;2022-12-11T05:03:18;98631.50;;;1.11;100.00
4022;BME280;2025;48.260;16.432;2022-12-11T05:05:47;98635.81;;;1.12;100.00
4022;BME280;2025;48.260;16.432;2022-12-11T05:08:15;98630.59;;;1.09;100.00
4022;BME280;2025;48.260;16.432;2022-12-11T05:10:44;98635.47;;;1.00;100.00
4022;BME280;2025;48.260;16.432;2022-12-11T05:13:11;98626.09;;;1.02;100.00
4022;BME280;2025;48.260;16.432;2022-12-11T05:15:38;98625.88;;;0.94;100.00
4022;BME280;2025;48.260;16.432;2022-12-11T05:18:05;98634.56;;;0.98;100.00
4022;BME280;2025;48.260;16.432;2022-12-11T05:20:31;98626.66;;;0.92;100.00
4022;BME280;2025;48.260;16.432;2022-12-11T05:22:58;98638.69;;;0.91;100.00
4022;BME280;2025;48.260;16.432;2022-12-11T05:25:25;98631.84;;;0.93;100.00
4022;BME280;2025;48.260;16.432;2022-12-11T05:27:53;98615.38;;;0.88;100.00
4022;BME280;2025;48.260;16.432;2022-12-11T05:30:20;98605.81;;;0.84;100.00
4022;BME280;2025;48.260;16.432;2022-12-11T05:32:47;98613.31;;;0.77;100.00
4022;BME280;2025;48.260;16.432;2022-12-11T05:35:14;98592.38;;;0.66;100.00
4022;BME280;2025;48.260;16.432;2022-12-11T05:37:41;98579.22;;;0.57;100.00
4022;BME280;2025;48.260;16.432;2022-12-11T05:40:08;98567.44;;;0.65;100.00
4022;BME280;2025;48.260;16.432;2022-12-11T05:42:37;98564.66;;;0.57;100.00
4022;BME280;2025;48.260;16.432;2022-12-11T05:45:06;98559.34;;;0.53;100.00
4022;BME280;2025;48.260;16.432;2022-12-11T05:47:34;98555.72;;;0.46;100.00
4022;BME280;2025;48.260;16.432;2022-12-11T05:50:00;98547.16;;;0.47;100.00
4022;BME280;2025;48.260;16.432;2022-12-11T05:52:27;98556.59;;;0.47;100.00
4022;BME280;2025;48.260;16.432;2022-12-11T05:54:57;98546.25;;;0.45;100.00
4022;BME280;2025;48.260;16.432;2022-12-11T05:57:23;98558.22;;;0.43;100.00
4022;BME280;2025;48.260;16.432;2022-12-11T05:59:50;98564.25;;;0.44;100.00
4022;BME280;2025;48.260;16.432;2022-12-11T06:02:18;98576.25;;;0.43;100.00
4022;BME280;2025;48.260;16.432;2022-12-11T06:04:46;98583.06;;;0.41;100.00
4022;BME280;2025;48.260;16.432;2022-12-11T06:07:12;98582.56;;;0.53;100.00
4022;BME280;2025;48.260;16.432;2022-12-11T06:09:39;98587.38;;;0.42;100.00
4022;BME280;2025;48.260;16.432;2022-12-11T06:12:06;98591.63;;;0.40;100.00
4022;BME280;2025;48.260;16.432;2022-12-11T06:14:33;98600.63;;;0.54;100.00
4022;BME280;2025;48.260;16.432;2022-12-11T06:17:00;98603.13;;;0.51;100.00
4022;BME280;2025;48.260;16.432;2022-12-11T06:19:29;98608.31;;;0.53;100.00
4022;BME280;2025;48.260;16.432;2022-12-11T06:21:56;98614.25;;;0.50;100.00
4022;BME280;2025;48.260;16.432;2022-12-11T06:24:22;98608.22;;;0.50;100.00
4022;BME280;2025;48.260;16.432;2022-12-11T06:26:49;98633.03;;;0.46;100.00
4022;BME280;2025;48.260;16.432;2022-12-11T06:29:17;98635.81;;;0.52;100.00
4022;BME280;2025;48.260;16.432;2022-12-11T06:31:43;98650.72;;;0.62;100.00
4022;BME280;2025;48.260;16.432;2022-12-11T06:34:11;98647.03;;;0.54;100.00
4022;BME280;2025;48.260;16.432;2022-12-11T06:36:40;98654.94;;;0.60;100.00
4022;BME280;2025;48.260;16.432;2022-12-11T06:39:07;98661.91;;;0.63;100.00
4022;BME280;2025;48.260;16.432;2022-12-11T06:41:34;98673.09;;;0.63;100.00
4022;BME280;2025;48.260;16.432;2022-12-11T06:44:01;98683.53;;;0.68;100.00
4022;BME280;2025;48.260;16.432;2022-12-11T06:46:27;98701.00;;;0.77;100.00
4022;BME280;2025;48.260;16.432;2022-12-11T06:48:54;98703.66;;;0.80;100.00
4022;BME280;2025;48.260;16.432;2022-12-11T06:51:21;98722.63;;;0.82;100.00
4022;BME280;2025;48.260;16.432;2022-12-11T06:53:51;98718.41;;;0.84;100.00
4022;BME280;2025;48.260;16.432;2022-12-11T06:56:20;98730.81;;;0.97;100.00
4022;BME280;2025;48.260;16.432;2022-12-11T06:58:47;98737.69;;;0.96;100.00
4022;BME280;2025;48.260;16.432;2022-12-11T07:01:16;98745.66;;;1.04;100.00
4022;BME280;2025;48.260;16.432;2022-12-11T07:03:43;98729.16;;;0.99;100.00
4022;BME280;2025;48.260;16.432;2022-12-11T07:06:11;98750.03;;;1.07;100.00
4022;BME280;2025;48.260;16.432;2022-12-11T07:08:38;98748.25;;;1.04;100.00
4022;BME280;2025;48.260;16.432;2022-12-11T07:11:08;98749.13;;;1.05;100.00
4022;BME280;2025;48.260;16.432;2022-12-11T07:13:37;98750.06;;;1.08;100.00
4022;BME280;2025;48.260;16.432;2022-12-11T07:16:05;98755.97;;;1.04;100.00
4022;BME280;2025;48.260;16.432;2022-12-11T07:18:35;98753.44;;;1.06;100.00
4022;BME280;2025;48.260;16.432;2022-12-11T07:21:03;98758.66;;;1.07;100.00
4022;BME280;2025;48.260;16.432;2022-12-11T07:23:30;98765.66;;;1.11;100.00
4022;BME280;2025;48.260;16.432;2022-12-11T07:25:57;98772.47;;;1.09;100.00
4022;BME280;2025;48.260;16.432;2022-12-11T07:28:26;98767.22;;;1.06;100.00
4022;BME280;2025;48.260;16.432;2022-12-11T07:30:53;98768.97;;;1.07;100.00
4022;BME280;2025;48.260;16.432;2022-12-11T07:33:20;98776.81;;;1.10;100.00
4022;BME280;2025;48.260;16.432;2022-12-11T07:35:47;98774.31;;;1.13;100.00
4022;BME280;2025;48.260;16.432;2022-12-11T07:38:14;98780.34;;;1.14;100.00
4022;BME280;2025;48.260;16.432;2022-12-11T07:40:43;98763.94;;;1.12;100.00
4022;BME280;2025;48.260;16.432;2022-12-11T07:43:10;98767.22;;;1.06;100.00
4022;BME280;2025;48.260;16.432;2022-12-11T07:45:39;98770.91;;;1.14;100.00
4022;BME280;2025;48.260;16.432;2022-12-11T07:48:06;98773.38;;;1.11;100.00
4022;BME280;2025;48.260;16.432;2022-12-11T07:50:34;98766.47;;;1.10;100.00
4022;BME280;2025;48.260;16.432;2022-12-11T07:53:01;98761.41;;;1.13;100.00
4022;BME280;2025;48.260;16.432;2022-12-11T07:55:28;98770.91;;;1.14;100.00
4022;BME280;2025;48.260;16.432;2022-12-11T07:57:55;98769.34;;;1.19;100.00
4022;BME280;2025;48.260;16.432;2022-12-11T08:00:22;98761.38;;;1.12;100.00
4022;BME280;2025;48.260;16.432;2022-12-11T08:02:50;98759.00;;;1.19;100.00
4022;BME280;2025;48.260;16.432;2022-12-11T08:05:17;98765.69;;;1.13;100.00
4022;BME280;2025;48.260;16.432;2022-12-11T08:07:43;98764.97;;;1.17;100.00
4022;BME280;2025;48.260;16.432;2022-12-11T08:10:11;98768.38;;;1.16;100.00
4022;BME280;2025;48.260;16.432;2022-12-11T08:12:37;98757.34;;;1.21;100.00
4022;BME280;2025;48.260;16.432;2022-12-11T08:15:05;98757.44;;;1.24;100.00
4022;BME280;2025;48.260;16.432;2022-12-11T08:17:33;98759.28;;;1.28;100.00
4022;BME280;2025;48.260;16.432;2022-12-11T08:20:04;98748.88;;;1.25;100.00
4022;BME280;2025;48.260;16.432;2022-12-11T08:22:31;98772.00;;;1.22;100.00
4022;BME280;2025;48.260;16.432;2022-12-11T08:24:58;98752.63;;;1.37;100.00
4022;BME280;2025;48.260;16.432;2022-12-11T08:27:25;98764.34;;;1.25;100.00
4022;BME280;2025;48.260;16.432;2022-12-11T08:29:52;98774.19;;;1.39;100.00
4022;BME280;2025;48.260;16.432;2022-12-11T08:32:19;98776.88;;;1.42;100.00
4022;BME280;2025;48.260;16.432;2022-12-11T08:34:45;98773.28;;;1.37;100.00
4022;BME280;2025;48.260;16.432;2022-12-11T08:37:14;98774.38;;;1.45;100.00
4022;BME280;2025;48.260;16.432;2022-12-11T08:39:41;98789.13;;;1.49;100.00
4022;BME280;2025;48.260;16.432;2022-12-11T08:42:11;98786.47;;;1.46;100.00
4022;BME280;2025;48.260;16.432;2022-12-11T08:44:38;98786.50;;;1.47;100.00
4022;BME280;2025;48.260;16.432;2022-12-11T08:47:06;98790.03;;;1.51;100.00
4022;BME280;2025;48.260;16.432;2022-12-11T08:49:34;98794.56;;;1.58;100.00
4022;BME280;2025;48.260;16.432;2022-12-11T08:52:02;98803.13;;;1.57;100.00
4022;BME280;2025;48.260;16.432;2022-12-11T08:54:31;98793.03;;;1.65;100.00
4022;BME280;2025;48.260;16.432;2022-12-11T08:56:58;98801.78;;;1.70;100.00
4022;BME280;2025;48.260;16.432;2022-12-11T08:59:25;98813.47;;;1.87;100.00
4022;BME280;2025;48.260;16.432;2022-12-11T09:01:53;98809.19;;;1.87;100.00
4022;BME280;2025;48.260;16.432;2022-12-11T09:04:21;98798.69;;;2.13;100.00
4022;BME280;2025;48.260;16.432;2022-12-11T09:06:48;98812.72;;;2.22;100.00
4022;BME280;2025;48.260;16.432;2022-12-11T09:09:15;98803.84;;;2.13;100.00
4022;BME280;2025;48.260;16.432;2022-12-11T09:11:44;98795.28;;;2.14;100.00
4022;BME280;2025;48.260;16.432;2022-12-11T09:14:11;98801.31;;;2.14;100.00
4022;BME280;2025;48.260;16.432;2022-12-11T09:16:38;98786.72;;;2.49;100.00
4022;BME280;2025;48.260;16.432;2022-12-11T09:19:07;98793.13;;;2.65;100.00
4022;BME280;2025;48.260;16.432;2022-12-11T09:21:36;98804.34;;;2.66;100.00
4022;BME280;2025;48.260;16.432;2022-12-11T09:24:04;98788.75;;;2.63;100.00
4022;BME280;2025;48.260;16.432;2022-12-11T09:26:31;98791.81;;;2.82;100.00
4022;BME280;2025;48.260;16.432;2022-12-11T09:29:01;98781.56;;;2.51;100.00
4022;BME280;2025;48.260;16.432;2022-12-11T09:31:30;98790.59;;;2.67;100.00
4022;BME280;2025;48.260;16.432;2022-12-11T09:34:04;98783.06;;;2.41;100.00
4022;BME280;2025;48.260;16.432;2022-12-11T09:36:31;98784.16;;;2.51;100.00
4022;BME280;2025;48.260;16.432;2022-12-11T09:38:59;98782.69;;;2.61;100.00
4022;BME280;2025;48.260;16.432;2022-12-11T09:41:38;98781.41;;;2.79;100.00
4022;BME280;2025;48.260;16.432;2022-12-11T09:44:16;98781.22;;;2.72;100.00
4022;BME280;2025;48.260;16.432;2022-12-11T09:46:45;98770.41;;;2.52;100.00
4022;BME280;2025;48.260;16.432;2022-12-11T09:49:21;98775.81;;;2.63;100.00
4022;BME280;2025;48.260;16.432;2022-12-11T09:51:58;98772.81;;;2.46;100.00
4022;BME280;2025;48.260;16.432;2022-12-11T09:54:26;98777.66;;;2.32;100.00
4022;BME280;2025;48.260;16.432;2022-12-11T09:56:58;98771.63;;;2.68;100.00
4022;BME280;2025;48.260;16.432;2022-12-11T09:59:33;98775.50;;;2.85;100.00
4022;BME280;2025;48.260;16.432;2022-12-11T10:02:17;98772.09;;;2.87;100.00
4022;BME280;2025;48.260;16.432;2022-12-11T10:04:54;98772.00;;;2.83;100.00
4022;BME280;2025;48.260;16.432;2022-12-11T10:07:29;98756.78;;;2.97;100.00
4022;BME280;2025;48.260;16.432;2022-12-11T10:10:04;98757.97;;;3.11;100.00
4022;BME280;2025;48.260;16.432;2022-12-11T10:12:39;98772.97;;;3.26;100.00
4022;BME280;2025;48.260;16.432;2022-12-11T10:15:23;98754.00;;;3.27;100.00
4022;BME280;2025;48.260;16.432;2022-12-11T10:17:54;98749.78;;;3.30;100.00
4022;BME280;2025;48.260;16.432;2022-12-11T10:20:25;98742.38;;;3.08;100.00
4022;BME280;2025;48.260;16.432;2022-12-11T10:22:56;98759.38;;;3.36;100.00
4022;BME280;2025;48.260;16.432;2022-12-11T10:25:26;98764.03;;;3.50;100.00
4022;BME280;2025;48.260;16.432;2022-12-11T10:27:53;98761.16;;;3.38;100.00
4022;BME280;2025;48.260;16.432;2022-12-11T10:30:24;98742.88;;;4.18;100.00
4022;BME280;2025;48.260;16.432;2022-12-11T10:32:57;98761.63;;;4.03;100.00
4022;BME280;2025;48.260;16.432;2022-12-11T10:35:32;98751.44;;;4.64;100.00
4022;BME280;2025;48.260;16.432;2022-12-11T10:38:11;98752.63;;;4.31;98.61
4022;BME280;2025;48.260;16.432;2022-12-11T10:40:42;98761.00;;;4.68;92.35
4022;BME280;2025;48.260;16.432;2022-12-11T10:43:10;98751.31;;;4.06;94.46
4022;BME280;2025;48.260;16.432;2022-12-11T10:45:38;98757.31;;;4.04;95.96
4022;BME280;2025;48.260;16.432;2022-12-11T10:48:09;98750.78;;;4.26;94.67
4022;BME280;2025;48.260;16.432;2022-12-11T10:50:37;98745.28;;;3.62;100.00
4022;BME280;2025;48.260;16.432;2022-12-11T10:53:05;98759.84;;;3.57;100.00
4022;BME280;2025;48.260;16.432;2022-12-11T10:55:39;98761.00;;;3.31;100.00
4022;BME280;2025;48.260;16.432;2022-12-11T10:58:14;98762.09;;;3.42;100.00
4022;BME280;2025;48.260;16.432;2022-12-11T11:00:45;98760.13;;;3.30;100.00
4022;BME280;2025;48.260;16.432;2022-12-11T11:03:20;98769.19;;;3.49;100.00
4022;BME280;2025;48.260;16.432;2022-12-11T11:05:48;98768.28;;;3.47;100.00
4022;BME280;2025;48.260;16.432;2022-12-11T11:08:17;98753.03;;;3.21;100.00
4022;BME280;2025;48.260;16.432;2022-12-11T11:10:52;98772.97;;;3.65;100.00
4022;BME280;2025;48.260;16.432;2022-12-11T11:13:20;98751.84;;;3.46;100.00
4022;BME280;2025;48.260;16.432;2022-12-11T11:15:50;98744.47;;;2.85;100.00
4022;BME280;2025;48.260;16.432;2022-12-11T11:18:25;98746.19;;;2.48;100.00
4022;BME280;2025;48.260;16.432;2022-12-11T11:20:53;98733.31;;;2.51;100.00
4022;BME280;2025;48.260;16.432;2022-12-11T11:23:23;98741.22;;;2.57;100.00
4022;BME280;2025;48.260;16.432;2022-12-11T11:25:52;98740.00;;;2.79;100.00
4022;BME280;2025;48.260;16.432;2022-12-11T11:28:22;98737.69;;;2.90;100.00
4022;BME280;2025;48.260;16.432;2022-12-11T11:31:01;98741.38;;;2.64;100.00
4022;BME280;2025;48.260;16.432;2022-12-11T11:33:30;98754.44;;;3.07;100.00
4022;BME280;2025;48.260;16.432;2022-12-11T11:35:59;98748.91;;;2.54;100.00
4022;BME280;2025;48.260;16.432;2022-12-11T11:38:29;98740.38;;;2.58;100.00
4022;BME280;2025;48.260;16.432;2022-12-11T11:41:05;98737.66;;;2.52;100.00
4022;BME280;2025;48.260;16.432;2022-12-11T11:43:41;98739.75;;;2.69;100.00
4022;BME280;2025;48.260;16.432;2022-12-11T11:46:14;98732.56;;;2.93;100.00
4022;BME280;2025;48.260;16.432;2022-12-11T11:48:49;98735.50;;;3.08;100.00
4022;BME280;2025;48.260;16.432;2022-12-11T11:51:22;98727.84;;;2.75;100.00
4022;BME280;2025;48.260;16.432;2022-12-11T11:53:53;98727.19;;;2.48;100.00
4022;BME280;2025;48.260;16.432;2022-12-11T11:56:24;98721.91;;;2.43;100.00
4022;BME280;2025;48.260;16.432;2022-12-11T11:59:06;98729.28;;;2.63;100.00
4022;BME280;2025;48.260;16.432;2022-12-11T12:01:40;98723.75;;;2.47;100.00
4022;BME280;2025;48.260;16.432;2022-12-11T12:04:08;98719.75;;;2.60;100.00
4022;BME280;2025;48.260;16.432;2022-12-11T12:06:43;98726.13;;;3.13;100.00
4022;BME280;2025;48.260;16.432;2022-12-11T12:09:28;98731.34;;;2.77;100.00
4022;BME280;2025;48.260;16.432;2022-12-11T12:12:11;98732.03;;;3.08;100.00
4022;BME280;2025;48.260;16.432;2022-12-11T12:14:54;98725.53;;;3.27;96.82
4022;BME280;2025;48.260;16.432;2022-12-11T12:17:28;98734.34;;;2.96;93.88
4022;BME280;2025;48.260;16.432;2022-12-11T12:20:11;98728.25;;;2.94;93.02
4022;BME280;2025;48.260;16.432;2022-12-11T12:22:50;98721.59;;;3.45;91.27
4022;BME280;2025;48.260;16.432;2022-12-11T12:25:25;98727.94;;;3.58;86.65
4022;BME280;2025;48.260;16.432;2022-12-11T12:27:59;98737.03;;;4.84;76.33
4022;BME280;2025;48.260;16.432;2022-12-11T12:30:40;98724.56;;;5.87;70.71
4022;BME280;2025;48.260;16.432;2022-12-11T12:33:22;98733.72;;;6.35;65.29
4022;BME280;2025;48.260;16.432;2022-12-11T12:35:57;98743.44;;;6.53;63.18
4022;BME280;2025;48.260;16.432;2022-12-11T12:38:33;98744.47;;;5.19;64.66
4022;BME280;2025;48.260;16.432;2022-12-11T12:41:08;98742.41;;;3.92;69.64
4022;BME280;2025;48.260;16.432;2022-12-11T12:44:10;98731.28;;;2.38;81.36
4022;BME280;2025;48.260;16.432;2022-12-11T12:46:50;98734.41;;;2.25;86.27
4022;BME280;2025;48.260;16.432;2022-12-11T12:49:29;98740.66;;;2.00;89.65
4022;BME280;2025;48.260;16.432;2022-12-11T12:51:59;98742.28;;;1.97;93.48
4022;BME280;2025;48.260;16.432;2022-12-11T12:54:28;98747.28;;;1.90;93.93
4022;BME280;2025;48.260;16.432;2022-12-11T12:56:57;98740.72;;;1.72;94.87
4022;BME280;2025;48.260;16.432;2022-12-11T12:59:26;98740.44;;;1.92;93.89
4022;BME280;2025;48.260;16.432;2022-12-11T13:01:55;98745.00;;;2.36;88.21
4022;BME280;2025;48.260;16.432;2022-12-11T13:04:38;98735.84;;;2.48;82.29
4022;BME280;2025;48.260;16.432;2022-12-11T13:07:12;98741.38;;;2.29;84.62
4022;BME280;2025;48.260;16.432;2022-12-11T13:09:40;98742.25;;;2.30;85.43
4022;BME280;2025;48.260;16.432;2022-12-11T13:12:12;98742.94;;;1.89;88.48
4022;BME280;2025;48.260;16.432;2022-12-11T13:14:40;98739.53;;;1.60;90.50
4022;BME280;2025;48.260;16.432;2022-12-11T13:17:24;98735.25;;;1.61;96.72
4022;BME280;2025;48.260;16.432;2022-12-11T13:20:11;98738.59;;;1.57;99.65
4022;BME280;2025;48.260;16.432;2022-12-11T13:23:08;98753.59;;;1.40;100.00
4022;BME280;2025;48.260;16.432;2022-12-11T13:25:51;98747.03;;;1.21;100.00
4022;BME280;2025;48.260;16.432;2022-12-11T13:28:23;98752.97;;;1.19;100.00